PWSweather.com
Personal Weather Stations
Station Observations
WISCHPK61
Green Bay Schmitt Park, Green Bay, WI 54311

Green Bay Schmitt ParkGreen Bay, WI 54311

Lat: 44.514277, Lon: -87.935067

Elevation: 735

Station Type: Acu Rite Pro Weather Center model 02032C

http://greenbayweathercam.com

High Low Average
Temperature 83.5°F28.6°C 69.3°F20.7°C 75.4°F24.1°C
Dew Point 83.2°F28.4°C 69.0°F20.6°C 75.1°F23.9°C
Winds 1.2 mph 1.9 kmh Calm Calm Calm SCalm S
Wind Gusts 2.3 mph3.7 kmh -- --
Humidity 99% 99% 99%
Pressure 29.32 in992.9 mb 29.23 in989.8 mb -
Precipitation 0.00 in0.0 mm - -
Hour Temp Dew Point Humidity Winds Wind Gusts Pressure Precip Precip Rate Daily Precip Total
12:00 AM 70.9°F21.6°C 70.6°F21.4°C 99% Calm Calm -- 29.24 in990.2 mb - 0.00 in0.0 mm 0.00 in0.0 mm
01:00 AM 70.3°F21.3°C 70.0°F21.1°C 99% Calm Calm -- 29.24 in990.2 mb - 0.00 in0.0 mm 0.00 in0.0 mm
02:00 AM 69.8°F21.0°C 69.5°F20.8°C 99% Calm Calm -- 29.23 in989.8 mb - 0.00 in0.0 mm 0.00 in0.0 mm
03:00 AM 69.4°F20.8°C 69.1°F20.6°C 99% Calm Calm -- 29.23 in989.8 mb - 0.00 in0.0 mm 0.00 in0.0 mm
04:00 AM 69.3°F20.7°C 69.0°F20.6°C 99% Calm Calm -- 29.23 in989.8 mb - 0.00 in0.0 mm 0.00 in0.0 mm
05:00 AM 69.6°F20.9°C 69.3°F20.7°C 99% Calm Calm -- 29.24 in990.2 mb - 0.00 in0.0 mm 0.00 in0.0 mm
06:00 AM 70.7°F21.5°C 70.4°F21.3°C 99% Calm Calm -- 29.26 in990.9 mb - 0.00 in0.0 mm 0.00 in0.0 mm
07:00 AM 72.0°F22.2°C 71.7°F22.1°C 99% Calm Calm -- 29.27 in991.2 mb - 0.00 in0.0 mm 0.00 in0.0 mm
08:00 AM 74.1°F23.4°C 73.8°F23.2°C 99% Calm Calm -- 29.27 in991.2 mb - 0.00 in0.0 mm 0.00 in0.0 mm
09:00 AM 76.6°F24.8°C 76.3°F24.6°C 99% Calm Calm -- 29.26 in990.9 mb - 0.00 in0.0 mm 0.00 in0.0 mm
10:00 AM 80.1°F26.7°C 79.8°F26.6°C 99% Calm Calm -- 29.26 in990.9 mb - 0.00 in0.0 mm 0.00 in0.0 mm
11:00 AM 80.9°F27.2°C 80.6°F27.0°C 99% 1.2 mph W1.9 kmh W -- 29.27 in991.2 mb - 0.00 in0.0 mm 0.00 in0.0 mm
12:00 PM 81.8°F27.7°C 81.5°F27.5°C 99% Calm Calm 1.2 mph1.9 kmh 29.27 in991.2 mb - 0.00 in0.0 mm 0.00 in0.0 mm
01:00 PM 83.5°F28.6°C 83.2°F28.4°C 99% 1.2 mph W1.9 kmh W 2.3 mph3.7 kmh 29.27 in991.2 mb - 0.00 in0.0 mm 0.00 in0.0 mm
02:00 PM 83.0°F28.3°C 82.7°F28.2°C 99% Calm Calm 1.2 mph1.9 kmh 29.26 in990.9 mb - 0.00 in0.0 mm 0.00 in0.0 mm
03:00 PM 83.5°F28.6°C 83.2°F28.4°C 99% Calm Calm 1.2 mph1.9 kmh 29.26 in990.9 mb - 0.00 in0.0 mm 0.00 in0.0 mm
04:00 PM 82.8°F28.2°C 82.5°F28.1°C 99% Calm Calm 1.2 mph1.9 kmh 29.27 in991.2 mb - 0.00 in0.0 mm 0.00 in0.0 mm
05:00 PM 81.3°F27.4°C 81.0°F27.2°C 99% Calm Calm -- 29.27 in991.2 mb - 0.00 in0.0 mm 0.00 in0.0 mm
06:00 PM 78.8°F26.0°C 78.5°F25.8°C 99% Calm Calm -- 29.27 in991.2 mb - 0.00 in0.0 mm 0.00 in0.0 mm
07:00 PM 75.7°F24.3°C 75.4°F24.1°C 99% Calm Calm -- 29.29 in991.9 mb - 0.00 in0.0 mm 0.00 in0.0 mm
08:00 PM 73.2°F22.9°C 72.9°F22.7°C 99% Calm Calm -- 29.30 in992.2 mb - 0.00 in0.0 mm 0.00 in0.0 mm
09:00 PM 71.6°F22.0°C 71.3°F21.8°C 99% Calm Calm -- 29.31 in992.6 mb - 0.00 in0.0 mm 0.00 in0.0 mm
10:00 PM 70.9°F21.6°C 70.6°F21.4°C 99% Calm Calm -- 29.32 in992.9 mb - 0.00 in0.0 mm 0.00 in0.0 mm
11:00 PM 69.8°F21.0°C 69.5°F20.8°C 99% Calm Calm -- 29.32 in992.9 mb - 0.00 in0.0 mm 0.00 in0.0 mm